Tiempo atmosférico en la estación meteorológica de Candeleda, Ávila (350 m.)



Fecha
DESCASC
Temp. máxima en grados centígrados (hora)
DESCASC
Temp. mínima en grados centígrados (hora)
DESCASC
Temp. media en grados centígrados
DESCASC
Racha de viento máxima en m/sg (hora)
DESCASC
Velocidad máxima media en intervalos de 10 minutos(hora)
DESCASC
Precipitaciones diarias en mm
DESCASC
Precipitaciones de 00:00 a 06:00 en mm
DESCASC
Precipitaciones de 06:00 a 12:00 en mm
DESCASC
Precipitaciones de 12:00 a 18:00 en mm
DESCASC
Precipitaciones de 18:00 a 24:00 en mm
DESCASC
07-08-2019 27.3 (16:40) 20.3 (00:00) 23.8 7.22 (20:10) 4.44 (20:10) 0.4 0 0 0.4 0
10-08-2019 32 (16:50) 13.5 (00:00) 22.8 6.39 (16:30) 3.61 (16:30) 0 0 0 0 0
24-08-2019 38.5 (19:00) 17.9 (00:00) 28.2 6.11 (16:30) 3.33 (16:30) 0 0 0 0 0
23-08-2019 37.5 (19:30) 18.6 (00:00) 28.1 7.78 (15:50) 3.89 (10:50) 0 0 0 0 0
22-08-2019 37 (18:20) 17.8 (00:00) 27.4 14.17 (01:10) 9.17 (01:20) 0 0 0 0 0
21-08-2019 33.3 (15:20) 21.9 (00:00) 27.6 13.89 (00:50) 9.17 (00:50) 0 0 0 0 0
20-08-2019 36.7 (17:50) 17.7 (00:00) 27.2 11.11 (23:59) 6.94 (23:59) 0 0 0 0 0
19-08-2019 34.1 (17:10) 16.4 (00:00) 25.2 7.78 (17:20) 4.17 (17:40) 0 0 0 0 0
18-08-2019 35 (16:30) 17.7 (00:00) 26.4 10.28 (18:40) 5.56 (16:50) 0 0 0 0 0
17-08-2019 38.9 (17:30) 18.4 (00:00) 28.7 8.89 (17:30) 5 (16:20) 0 0 0 0 0
16-08-2019 38.5 (16:40) 19.9 (00:00) 29.2 7.78 (19:40) 4.72 (18:00) 0 0 0 0 0
15-08-2019 38.6 (17:20) 18.2 (00:00) 28.4 7.5 (17:40) 4.17 (17:30) 0 0 0 0 0
14-08-2019 36.6 (17:30) 14.3 (00:00) 25.4 7.22 (15:30) 3.89 (18:30) 0 0 0 0 0
13-08-2019 33.9 (18:20) 14 (00:00) 24 7.22 (17:30) 3.33 (17:40) 0 0 0 0 0
12-08-2019 32.9 (18:10) 13.1 (00:00) 23 9.17 (14:30) 3.61 (16:30) 0 0 0 0 0
11-08-2019 30.1 (17:50) 16.4 (00:00) 23.3 9.72 (17:10) 6.11 (17:00) 0 0 0 0 0
26-07-2019 31.9 (17:00) 19.8 (00:00) 25.8 10 (18:20) 6.11 (18:10) 0 0 0 0 0
09-08-2019 28 (15:00) 17 (00:00) 22.5 11.11 (17:00) 6.39 (16:50) 0 0 0 0 0
08-08-2019 35.6 (18:10) 16.7 (00:00) 26.1 9.44 (16:20) 6.39 (19:00) 0 0 0 0 0
06-08-2019 36.7 (17:10) 16.1 (00:00) 26.4 8.89 (19:00) 5.28 (18:20) 0 0 0 0 0
05-08-2019 37.6 (17:40) 16.7 (00:00) 27.1 8.61 (15:30) 5.28 (15:30) 0 0 0 0 0
04-08-2019 36.7 (18:00) 17 (00:00) 26.9 8.61 (19:00) 5.28 (18:50) 0 0 0 0 0
03-08-2019 37.7 (17:40) 15.4 (00:00) 26.6 7.78 (17:00) 4.44 (17:00) 0 0 0 0 0
02-08-2019 37.3 (17:50) 15.5 (00:00) 26.4 6.39 (16:40) 3.33 (17:10) 0 0 0 0 0
01-08-2019 35.6 (16:20) 20 (00:00) 27.8 8.89 (19:20) 5 (16:50) 0 0 0 0 0
31-07-2019 36.5 (18:30) 15.9 (00:00) 26.2 10 (10:00) 6.39 (10:10) 0 0 0 0 0
30-07-2019 34.7 (18:30) 13.2 (00:00) 24 5.83 (15:00) 3.06 (16:20) 0 0 0 0 0
29-07-2019 33 (18:10) 15.3 (00:00) 24.2 15 (18:40) 6.11 (17:00) 0 0 0 0 0
28-07-2019 32.9 (18:40) 16.1 (00:00) 24.5 7.78 (15:30) 4.72 (17:40) 0 0 0 0 0
27-07-2019 28.6 (17:20) 15.1 (00:00) 21.9 11.39 (17:30) 6.94 (18:30) 0 0 0 0 0

Gráficas

Temp. máximas Temp. mínimas Temp. medias Precipitaciones Rachas de viento máximas Velocidades máximas media en intervalos de 10 minutos

Datos horarios

Fecha y hora oficial Temperatura (ºC) Velocidad del viento (km/h) Dirección del viento Racha (km/h) Dirección de racha Precipitación (mm) Presión (hPa) Tendencia (hPa) Humedad (%)
2019-08-24 23:00:00 28.6 5 Este 15 Norte 0 -- -- 30
2019-08-24 22:00:00 29.9 9 Norte 13 Norte 0 -- -- 27
2019-08-24 21:00:00 30.8 6 Norte 9 Norte 0 -- -- 29
2019-08-24 20:00:00 36.5 6 Sudoeste 12 Oeste 0 -- -- 20
2019-08-24 19:00:00 38.5 2 Norte 15 Oeste 0 -- -- 19
2019-08-24 18:00:00 38.2 8 Sur 16 Sur 0 -- -- 18
2019-08-24 17:00:00 38.1 8 Sudeste 22 Sur 0 -- -- 19
2019-08-24 16:00:00 37.3 10 Sudoeste 20 Sur 0 -- -- 20
2019-08-24 15:00:00 36.4 9 Sur 17 Sur 0 -- -- 18
2019-08-24 14:00:00 35.5 5 Norte 17 Nordeste 0 -- -- 23
2019-08-24 13:00:00 33.8 6 Oeste 13 Este 0 -- -- 24
2019-08-24 12:00:00 31.9 3 Sudeste 14 Sudeste 0 -- -- 26
2019-08-24 11:00:00 29.1 7 Este 12 Este 0 -- -- 30
2019-08-24 10:00:00 27.1 2 Sudoeste 9 Oeste 0 -- -- 31
2019-08-24 09:00:00 22.7 4 Oeste 8 Oeste 0 -- -- 43
2019-08-24 08:00:00 18.3 0 Calma 4 Sudeste 0 -- -- 49
2019-08-24 07:00:00 18.8 2 Oeste 6 Noroeste 0 -- -- 47
2019-08-24 06:00:00 18.9 2 Norte 8 Nordeste 0 -- -- 47
2019-08-24 05:00:00 19.6 0 Calma 7 Nordeste 0 -- -- 43
2019-08-24 04:00:00 20.8 5 Este 7 Este 0 -- -- 42
2019-08-24 03:00:00 21.8 4 Nordeste 6 Este 0 -- -- 40
2019-08-24 02:00:00 22.8 3 Nordeste 6 Nordeste 0 -- -- 36
2019-08-24 01:00:00 23.7 0 Calma 7 Sudeste 0 -- -- 35
2019-08-24 00:00:00 25 3 Norte 14 Norte 0 -- -- 31
2019-08-23 23:00:00 26.9 9 Norte 15 Norte 0 -- -- 29
2019-08-23 22:00:00 26.9 6 Norte 15 Norte 0 -- -- 31
2019-08-23 21:00:00 29 9 Norte 13 Norte 0 -- -- 31
2019-08-23 20:00:00 37.1 3 Sudeste 11 Sudeste 0 -- -- 17
2019-08-23 19:00:00 37.1 8 Sudeste 17 Sudeste 0 -- -- 18
2019-08-23 18:00:00 37.1 8 Sur 21 Sur 0 -- -- 20
2019-08-23 17:00:00 37.1 9 Sur 24 Sudeste 0 -- -- 21
2019-08-23 16:00:00 36.4 6 Norte 28 Este 0 -- -- 22
2019-08-23 15:00:00 35.3 10 Este 24 Este 0 -- -- 24
2019-08-23 14:00:00 34.6 10 Sudeste 24 Este 0 -- -- 24
2019-08-23 13:00:00 33.1 9 Nordeste 24 Este 0 -- -- 28
2019-08-23 12:00:00 31.3 12 Este 24 Este 0 -- -- 29
2019-08-23 11:00:00 29.5 12 Nordeste 23 Este 0 -- -- 34
2019-08-23 10:00:00 27.2 6 Nordeste 12 Nordeste 0 -- -- 37
2019-08-23 09:00:00 23.7 5 Noroeste 9 Noroeste 0 -- -- 36
2019-08-23 08:00:00 19.4 3 Oeste 6 Oeste 0 -- -- 45
2019-08-23 07:00:00 19.3 4 Sudoeste 10 Noroeste 0 -- -- 42
2019-08-23 06:00:00 19 2 Nordeste 5 Nordeste 0 -- -- 45
2019-08-23 05:00:00 19.1 4 Nordeste 14 Este 0 -- -- 46
2019-08-23 04:00:00 20.6 3 Norte 9 Norte 0 -- -- 38
2019-08-23 03:00:00 20.1 0 Calma 9 Este 0 -- -- 42
2019-08-23 02:00:00 21.4 5 Sudeste 10 Noroeste 0 -- -- 39
2019-08-23 01:00:00 23.6 5 Noroeste 9 Noroeste 0 -- -- 33
2019-08-23 00:00:00 23.7 2 Norte 13 Norte 0 -- -- 34
2019-08-22 23:00:00 26.8 8 Norte 13 Norte 0 -- -- 31
2019-08-22 22:00:00 26.5 4 Norte 9 Norte 0 -- -- 35
2019-08-22 21:00:00 29.9 4 Nordeste 9 Este 0 -- -- 35
2019-08-22 20:00:00 35.7 2 Este 14 Este 0 -- -- 24
2019-08-22 19:00:00 35.6 6 Este 20 Sudeste 0 -- -- 24
2019-08-22 18:00:00 35.7 5 Nordeste 23 Sudeste 0 -- -- 26
2019-08-22 17:00:00 35.7 8 Sudoeste 21 Sur 0 -- -- 26
2019-08-22 16:00:00 35.4 8 Sur 21 Sudeste 0 -- -- 28
2019-08-22 15:00:00 34 7 Sudeste -- -- -- -- -- 30
2019-08-22 14:00:00 -- 3 Noroeste 18 Este 0 -- -- --
2019-08-22 13:00:00 30.9 6 Nordeste 17 Este 0 -- -- 39
2019-08-22 12:00:00 29.9 8 Este 16 Sudeste 0 -- -- 42
2019-08-22 11:00:00 28.1 5 Este 12 Este 0 -- -- 48
2019-08-22 10:00:00 25.7 3 Sudoeste 9 Oeste 0 -- -- 55
2019-08-22 09:00:00 23.7 0 Calma 6 Noroeste 0 -- -- 63
2019-08-22 08:00:00 18.5 2 Oeste 6 Sur 0 -- -- 77
2019-08-22 07:00:00 18.4 0 Calma 6 Norte 0 -- -- 76
2019-08-22 06:00:00 20.2 0 Calma 7 Noroeste 0 -- -- 69
2019-08-22 05:00:00 20.1 3 Sur 9 Noroeste 0 -- -- 67
2019-08-22 04:00:00 22.3 5 Norte 15 Nordeste 0 -- -- 61
2019-08-22 03:00:00 24.2 11 Nordeste 45 Nordeste 0 -- -- 60
2019-08-22 02:00:00 24.8 31 Este 51 Este 0 -- -- 59
2019-08-22 01:00:00 25.3 26 Este 43 Este 0 -- -- 54
2019-08-22 00:00:00 23.1 2 Este 12 Este 0 -- -- 52
2019-08-21 23:00:00 23.8 0 Calma 9 Norte 0 -- -- 49
2019-08-21 22:00:00 25.9 8 Norte 15 Norte 0 -- -- 42
2019-08-21 21:00:00 27.3 7 Norte 10 Norte 0 -- -- 41
2019-08-21 20:00:00 32.8 4 Oeste 13 Sudoeste 0 -- -- 30
2019-08-21 19:00:00 31.8 9 Oeste 13 Oeste 0 -- -- 38
2019-08-21 18:00:00 29.7 4 Nordeste 19 Nordeste 0 -- -- 44
2019-08-21 17:00:00 30.2 9 Nordeste 24 Nordeste 0 -- -- 44
2019-08-21 16:00:00 32.5 11 Nordeste 23 Este 0 -- -- 39
2019-08-21 15:00:00 31 10 Nordeste 24 Este 0 -- -- 43
2019-08-21 14:00:00 30 16 Este 27 Este 0 -- -- 45
2019-08-21 13:00:00 28.4 15 Este 31 Este 0 -- -- 48
2019-08-21 12:00:00 28.3 18 Este 31 Este 0 -- -- 49
2019-08-21 11:00:00 26.9 20 Este 33 Este 0 -- -- 55
2019-08-21 10:00:00 25.8 13 Este 23 Nordeste 0 -- -- 58
2019-08-21 09:00:00 23.6 5 Norte 13 Nordeste 0 -- -- 63
2019-08-21 08:00:00 21.9 3 Norte 17 Nordeste 0 -- -- 63
2019-08-21 07:00:00 22.8 10 Nordeste 29 Nordeste 0 -- -- 62
2019-08-21 06:00:00 23.5 20 Este 40 Este 0 -- -- 59
2019-08-21 05:00:00 23.9 23 Este 40 Este 0 -- -- 57
2019-08-21 04:00:00 24.6 27 Este 45 Este 0 -- -- 54
2019-08-21 03:00:00 25.3 25 Este 49 Este 0 -- -- 51
2019-08-21 02:00:00 26.3 28 Este 46 Este 0 -- -- 47
2019-08-21 01:00:00 26.9 27 Este 50 Este 0 -- -- 41
2019-08-21 00:00:00 27.9 25 Este 40 Este 0 -- -- 37
2019-08-20 23:00:00 25.4 2 Este 12 Norte 0 -- -- 39
2019-08-20 22:00:00 26.9 10 Norte 14 Norte 0 -- -- 37
2019-08-20 21:00:00 30 4 Noroeste 8 Sudoeste 0 -- -- 33
2019-08-20 20:00:00 34.4 7 Sudoeste 13 Oeste 0 -- -- 25
2019-08-20 19:00:00 35.6 6 Oeste 19 Sudeste 0 -- -- 23
2019-08-20 18:00:00 36.3 7 Sudeste 16 Sur 0 -- -- 23
2019-08-20 17:00:00 35 10 Sudeste 18 Sur 0 -- -- 23
2019-08-20 16:00:00 35.1 8 Sudeste 19 Este 0 -- -- 23
2019-08-20 15:00:00 33 7 Este 18 Sudeste 0 -- -- 26
2019-08-20 14:00:00 32.4 4 Nordeste 19 Sudoeste 0 -- -- 30
2019-08-20 13:00:00 31.1 6 Sudoeste 17 Sudoeste 0 -- -- 33
2019-08-20 12:00:00 29.3 6 Oeste 14 Sudoeste 0 -- -- 36
2019-08-20 11:00:00 28.3 6 Sudoeste 12 Oeste 0 -- -- 37
2019-08-20 10:00:00 27.2 4 Sur 7 Sudoeste 0 -- -- 40
2019-08-20 09:00:00 22.9 0 Calma 4 Norte 0 -- -- 54
2019-08-20 08:00:00 17.9 0 Calma 4 Oeste 0 -- -- 64
2019-08-20 07:00:00 18.3 3 Este 4 Nordeste 0 -- -- 62
2019-08-20 06:00:00 20.9 2 Norte 4 Norte 0 -- -- 55
2019-08-20 05:00:00 20.9 2 Nordeste 6 Nordeste 0 -- -- 53
2019-08-20 04:00:00 21.4 0 Calma 6 Este 0 -- -- 49
2019-08-20 03:00:00 21.7 5 Este 7 Este 0 -- -- 51
2019-08-20 02:00:00 22 3 Nordeste 9 Sudeste 0 -- -- 51
2019-08-20 01:00:00 22.7 4 Sudeste 8 Sudeste 0 -- -- 52
2019-08-20 00:00:00 23.3 0 Calma 4 Norte 0 -- -- 50
2019-08-19 23:00:00 24.4 3 Sudeste 9 Oeste 0 -- -- 45
2019-08-19 22:00:00 25.8 4 Noroeste 11 Sudoeste 0 -- -- 42
2019-08-19 21:00:00 27.8 4 Noroeste 9 Sudoeste 0 -- -- 35
2019-08-19 20:00:00 28.9 6 Oeste 22 Sudoeste 0 -- -- 31
2019-08-19 19:00:00 30.5 13 Sudoeste 24 Sudoeste 0 -- -- 27
2019-08-19 18:00:00 31.9 13 Sudoeste 28 Sur 0 -- -- 25
2019-08-19 17:00:00 33.8 13 Sudoeste 23 Oeste 0 -- -- 24
2019-08-19 16:00:00 33.5 10 Sur 24 Sur 0 -- -- 28
2019-08-19 15:00:00 32.5 11 Sudoeste 20 Sudoeste 0 -- -- 28
2019-08-19 14:00:00 31 8 Oeste 19 Sudoeste 0 -- -- 34
2019-08-19 13:00:00 29.3 11 Sur 21 Sur 0 -- -- 41
2019-08-19 12:00:00 28.2 9 Sudoeste 17 Sudoeste 0 -- -- 45
2019-08-19 11:00:00 25.9 4 Norte 10 Nordeste -- -- -- 55
2019-08-19 10:00:00 24.2 4 Nordeste 8 Este 0 -- -- 61
2019-08-19 09:00:00 22.4 2 Sudeste 5 Este 0 -- -- 68
2019-08-19 08:00:00 17.5 3 Nordeste 6 Este 0 -- -- 84
2019-08-19 07:00:00 16.8 3 Este 6 Este 0 -- -- 86
2019-08-19 06:00:00 18.7 3 Este 4 Norte 0 -- -- 80
2019-08-19 05:00:00 19.4 0 Calma 4 Norte 0 -- -- 76
2019-08-19 04:00:00 19.7 2 Nordeste 5 Oeste 0 -- -- 74
2019-08-19 03:00:00 21.9 3 Noroeste 6 Nordeste 0 -- -- 66
2019-08-19 02:00:00 21.5 5 Nordeste 8 Nordeste 0 -- -- 63
2019-08-19 01:00:00 22.4 3 Nordeste 6 Nordeste 0 -- -- 56
2019-08-19 00:00:00 24.7 5 Oeste 9 Oeste 0 -- -- 46
2019-08-18 23:00:00 24.1 3 Norte 12 Oeste 0 -- -- 44
2019-08-18 22:00:00 27.2 3 Oeste 12 Sudoeste 0 -- -- 37
2019-08-18 21:00:00 30.6 7 Sudoeste 26 Sur 0 -- -- 30
2019-08-18 20:00:00 33.5 15 Sudoeste 30 Sudoeste 0 -- -- 25
2019-08-18 19:00:00 32.6 14 Sudoeste 37 Sudoeste 0 -- -- 22
2019-08-18 18:00:00 34.4 18 Sudoeste 33 Sudoeste 0 -- -- 23
2019-08-18 17:00:00 34.5 18 Sudoeste 35 Sur 0 -- -- 23
2019-08-18 16:00:00 34.4 18 Sur 31 Sur 0 -- -- 22
2019-08-18 15:00:00 33.8 18 Sudoeste 29 Sur 0 -- -- 27
2019-08-18 14:00:00 31.2 12 Sudoeste 26 Sudoeste 0 -- -- 35
2019-08-18 13:00:00 31.2 8 Sudoeste 16 Sudoeste 0 -- -- 33
2019-08-18 12:00:00 28.2 6 Oeste 15 Sur 0 -- -- 41
2019-08-18 11:00:00 27.5 3 Noroeste 12 Sudoeste 0 -- -- 45
2019-08-18 10:00:00 24.2 9 Sudoeste 13 Sudoeste 0 -- -- 52
2019-08-18 09:00:00 23.7 2 Noroeste 10 Sudoeste 0 -- -- 50
2019-08-18 08:00:00 20.7 5 Oeste 12 Sudoeste 0 -- -- 54
2019-08-18 07:00:00 17.7 2 Nordeste 5 Norte 0 -- -- 54
2019-08-18 06:00:00 19 3 Nordeste 4 Nordeste 0 -- -- 45
2019-08-18 05:00:00 19 0 Calma 4 Oeste 0 -- -- 44
2019-08-18 04:00:00 19.4 2 Norte 5 Norte 0 -- -- 42
2019-08-18 03:00:00 19.8 0 Calma 12 Este 0 -- -- 39
2019-08-18 02:00:00 22.2 8 Este 10 Este 0 -- -- 35
2019-08-18 01:00:00 22.3 2 Nordeste 7 Este 0 -- -- 35
2019-08-18 00:00:00 23.4 4 Este 10 Oeste 0 -- -- 34
2019-08-17 23:00:00 26.9 5 Noroeste 9 Oeste 0 -- -- 25
2019-08-17 22:00:00 27.3 5 Noroeste 8 Oeste 0 -- -- 25
2019-08-17 21:00:00 33.2 6 Noroeste 17 Oeste 0 -- -- 20
2019-08-17 20:00:00 37.6 9 Oeste 17 Sudoeste 0 -- -- 15
2019-08-17 19:00:00 38.9 8 Oeste 24 Oeste 0 -- -- 15
2019-08-17 18:00:00 38.8 15 Sudoeste 32 Sudoeste 0 -- -- 15
2019-08-17 17:00:00 38.7 13 Sudoeste 27 Oeste 0 -- -- 15
2019-08-17 16:00:00 38 16 Sudoeste 27 Sur 0 -- -- 16
2019-08-17 15:00:00 36.9 14 Sudoeste 26 Sur 0 -- -- 20
2019-08-17 14:00:00 35.7 10 Sudoeste 22 Sudoeste 0 -- -- 25
2019-08-17 13:00:00 34.2 8 Sudoeste 18 Sudoeste 0 -- -- 28
2019-08-17 12:00:00 33.1 7 Sudoeste 12 Sudoeste 0 -- -- 29
2019-08-17 11:00:00 31.1 0 Calma 5 Noroeste 0 -- -- 32
2019-08-17 10:00:00 28.4 3 Sudeste 8 Sudeste 0 -- -- 36
2019-08-17 09:00:00 22.7 3 Este 7 Sudeste 0 -- -- 48
2019-08-17 08:00:00 18.9 4 Nordeste 5 Nordeste 0 -- -- 57
2019-08-17 07:00:00 19.2 0 Calma 3 Oeste 0 -- -- 54
2019-08-17 06:00:00 19.7 2 Nordeste 7 Este 0 -- -- 51
2019-08-17 05:00:00 20.5 0 Calma 8 Norte 0 -- -- 48
2019-08-17 04:00:00 22.4 4 Norte 6 Norte 0 -- -- 43
2019-08-17 03:00:00 22.5 0 Calma 5 Este 0 -- -- 47
2019-08-17 02:00:00 24.4 5 Norte 7 Norte 0 -- -- 38
2019-08-17 01:00:00 25.3 2 Nordeste 10 Noroeste 0 -- -- 37
2019-08-17 00:00:00 25.1 4 Nordeste 9 Este 0 -- -- 39
2019-08-16 23:00:00 26.3 4 Nordeste 10 Noroeste 0 -- -- 38
2019-08-16 22:00:00 29.1 7 Norte 10 Norte 0 -- -- 31
2019-08-16 21:00:00 32.5 7 Sudoeste 19 Sudoeste 0 -- -- 27
2019-08-16 20:00:00 36.6 15 Sudoeste 28 Sudoeste 0 -- -- 21
2019-08-16 19:00:00 37.7 17 Sudoeste 28 Oeste 0 -- -- 22
2019-08-16 18:00:00 38 17 Sudoeste 27 Sudoeste 0 -- -- 20
2019-08-16 17:00:00 38 15 Sur 26 Sur 0 -- -- 20
2019-08-16 16:00:00 37.4 15 Sudoeste 25 Sudoeste 0 -- -- 20
2019-08-16 15:00:00 37 14 Sudoeste 27 Sudoeste 0 -- -- 24
2019-08-16 14:00:00 36.3 6 Oeste 18 Este 0 -- -- 26
2019-08-16 13:00:00 34.6 5 Nordeste 15 Sudeste 0 -- -- 29
2019-08-16 12:00:00 33.3 5 Nordeste 15 Este 0 -- -- 29
2019-08-16 11:00:00 31.9 5 Nordeste 14 Este 0 -- -- 33
2019-08-16 10:00:00 29.4 5 Sudoeste 8 Sudoeste 0 -- -- 34
2019-08-16 09:00:00 25.6 0 Calma 6 Norte 0 -- -- 46
2019-08-16 08:00:00 20.8 3 Norte 6 Norte 0 -- -- 53
2019-08-16 07:00:00 20.9 3 Oeste 8 Nordeste 0 -- -- 50
2019-08-16 06:00:00 20.4 5 Este 10 Este 0 -- -- 54
2019-08-16 05:00:00 21.8 3 Este 12 Noroeste 0 -- -- 52
2019-08-16 04:00:00 21.6 4 Noroeste 14 Este 0 -- -- 48
2019-08-16 03:00:00 24 5 Noroeste 6 Noroeste 0 -- -- 42
2019-08-16 02:00:00 23.9 3 Este 7 Oeste 0 -- -- 45
2019-08-16 01:00:00 25.6 0 Calma 9 Noroeste 0 -- -- 38
2019-08-16 00:00:00 26.8 4 Noroeste 10 Sudeste 0 -- -- 36
2019-08-15 23:00:00 28.1 4 Sudeste 7 Nordeste 0 -- -- 32
2019-08-15 22:00:00 30 4 Norte 12 Oeste 0 -- -- 28
2019-08-15 21:00:00 32 10 Oeste 18 Sudoeste 0 -- -- 29
2019-08-15 20:00:00 37.1 12 Sudoeste 23 Sudoeste 0 -- -- 24
2019-08-15 19:00:00 37.9 15 Sudoeste 25 Sur 0 -- -- 24
2019-08-15 18:00:00 38.2 15 Sudoeste 27 Sudoeste 0 -- -- 24
2019-08-15 17:00:00 38.2 12 Sur 23 Sudoeste 0 -- -- 23
2019-08-15 16:00:00 37.7 10 Sudoeste 24 Sudoeste 0 -- -- 23
2019-08-15 15:00:00 37 9 Sur 26 Sur 0 -- -- 24
2019-08-15 14:00:00 36 10 Sur 18 Sur 0 -- -- 24
2019-08-15 13:00:00 34.6 6 Noroeste 21 Oeste 0 -- -- 26
2019-08-15 12:00:00 33.1 9 Sudoeste 17 Sudoeste 0 -- -- 29
2019-08-15 11:00:00 32.5 4 Este 10 Este 0 -- -- 29
2019-08-15 10:00:00 31.8 0 Calma 5 Este 0 -- -- 32
2019-08-15 09:00:00 25.2 2 Este 6 Nordeste 0 -- -- 47
2019-08-15 08:00:00 19.5 0 Calma 6 Nordeste 0 -- -- 55
2019-08-15 07:00:00 18.3 4 Este 6 Nordeste 0 -- -- 59
2019-08-15 06:00:00 19.8 0 Calma 8 Noroeste 0 -- -- 54
2019-08-15 05:00:00 22.8 5 Noroeste 7 Noroeste 0 -- -- 41
2019-08-15 04:00:00 22.2 5 Noroeste 9 Oeste 0 -- -- 43
2019-08-15 03:00:00 22.3 3 Nordeste 6 Este 0 -- -- 43
2019-08-15 02:00:00 22.3 3 Este 7 Oeste 0 -- -- 48
2019-08-15 01:00:00 25.1 5 Norte 9 Noroeste 0 -- -- 36
2019-08-15 00:00:00 24 0 Calma 9 Este 0 -- -- 37
2019-08-14 23:00:00 25.6 3 Noroeste 12 Norte 0 -- -- 33
2019-08-14 22:00:00 27.2 5 Noroeste 10 Norte 0 -- -- 30
2019-08-14 21:00:00 32.2 7 Oeste 11 Sudoeste 0 -- -- 23
2019-08-14 20:00:00 35.4 10 Sudoeste 21 Sudoeste 0 -- -- 19
2019-08-14 19:00:00 36.2 12 Sudoeste 21 Sudoeste 0 -- -- 19
2019-08-14 18:00:00 36.1 12 Sudoeste 23 Sudoeste 0 -- -- 19
2019-08-14 17:00:00 35.8 7 Sudoeste 20 Sudoeste 0 -- -- 18
2019-08-14 16:00:00 35.2 10 Sudoeste 26 Sur 0 -- -- 18
2019-08-14 15:00:00 33.7 12 Oeste 21 Oeste 0 -- -- 19
2019-08-14 14:00:00 33.1 9 Sudoeste 18 Sudeste 0 -- -- 19
2019-08-14 13:00:00 33.3 7 Sudeste 18 Sudeste 0 -- -- 19
2019-08-14 12:00:00 31.4 5 Sur 10 Sur 0 -- -- 20
2019-08-14 11:00:00 28.9 2 Nordeste 9 Sudeste 0 -- -- 26
2019-08-14 10:00:00 25.7 5 Sudeste 9 Sudeste 0 -- -- 29
2019-08-14 09:00:00 22.3 2 Sur 5 Oeste 0 -- -- 38
2019-08-14 08:00:00 16.6 4 Este 15 Este 0 -- -- 47
2019-08-14 07:00:00 17.2 3 Noroeste 9 Noroeste 0 -- -- 45
2019-08-14 06:00:00 19.3 3 Noroeste 12 Norte 0 -- -- 38
2019-08-14 05:00:00 19.8 4 Norte 8 Norte 0 -- -- 37
2019-08-14 04:00:00 19.3 3 Norte 7 Norte 0 -- -- 39
2019-08-14 03:00:00 20.5 3 Noroeste 11 Noroeste 0 -- -- 37
2019-08-14 02:00:00 19.9 0 Calma 6 Sudeste 0 -- -- 37
2019-08-14 01:00:00 21.8 3 Norte 9 Norte 0 -- -- 35
2019-08-14 00:00:00 22.4 2 Nordeste 6 Nordeste 0 -- -- 32
2019-08-13 23:00:00 23.2 4 Norte 10 Norte 0 -- -- 31
2019-08-13 22:00:00 23.9 5 Noroeste 15 Oeste 0 -- -- 35
2019-08-13 21:00:00 28.6 6 Oeste 15 Sudoeste 0 -- -- 25
2019-08-13 20:00:00 32.6 8 Sudoeste 20 Sur 0 -- -- 21
2019-08-13 19:00:00 33.3 10 Sudoeste 21 Sudoeste 0 -- -- 22
2019-08-13 18:00:00 33.3 7 Sudoeste 26 Sudeste 0 -- -- 21
2019-08-13 17:00:00 32.8 9 Sur 20 Sudoeste 0 -- -- 21
2019-08-13 16:00:00 32.4 6 Sudoeste 20 Sudoeste 0 -- -- 22
2019-08-13 15:00:00 31.3 11 Sudoeste 19 Sudoeste 0 -- -- 22
2019-08-13 14:00:00 30.1 6 Sudeste 16 Sur 0 -- -- 24
2019-08-13 13:00:00 30.3 3 Nordeste 15 Nordeste 0 -- -- 26
2019-08-13 12:00:00 27.1 8 Este 14 Nordeste 0 -- -- 29
2019-08-13 11:00:00 25.9 4 Sudoeste 10 Oeste 0 -- -- 29
2019-08-13 10:00:00 23.7 2 Nordeste 7 Oeste 0 -- -- 33
2019-08-13 09:00:00 20.6 0 Calma 5 Norte 0 -- -- 38
2019-08-13 08:00:00 14.2 3 Sudoeste 8 Noroeste 0 -- -- 52
2019-08-13 07:00:00 14.1 0 Calma 8 Norte 0 -- -- 53
2019-08-13 06:00:00 14.7 3 Nordeste 10 Noroeste 0 -- -- 51
2019-08-13 05:00:00 17.7 6 Norte 13 Nordeste 0 -- -- 39
2019-08-13 04:00:00 19.2 5 Norte 13 Noroeste 0 -- -- 37
2019-08-13 03:00:00 17.3 3 Oeste 9 Oeste 0 -- -- 45
2019-08-13 02:00:00 18.5 2 Sudoeste 10 Norte 0 -- -- 41
2019-08-13 01:00:00 22 5 Noroeste 8 Noroeste 0 -- -- 31
2019-08-13 00:00:00 21.5 0 Calma 6 Noroeste 0 -- -- 34
2019-08-12 23:00:00 23.2 4 Nordeste 12 Noroeste 0 -- -- 29
2019-08-12 22:00:00 22.1 4 Norte 9 Noroeste 0 -- -- 33
2019-08-12 21:00:00 25.6 6 Noroeste 14 Oeste 0 -- -- 28
2019-08-12 20:00:00 31.4 5 Sudeste 27 Este 0 -- -- 20
2019-08-12 19:00:00 30.2 5 Norte 18 Sur 0 -- -- 21
2019-08-12 18:00:00 32.2 6 Sudoeste 19 Sur 0 -- -- 18
2019-08-12 17:00:00 30.6 7 Oeste 24 Este 0 -- -- 19
2019-08-12 16:00:00 30.8 10 Sudeste 24 Sudoeste 0 -- -- 20
2019-08-12 15:00:00 29 12 Sudoeste 33 Sudeste 0 -- -- 23
2019-08-12 14:00:00 29 6 Oeste 19 Sur 0 -- -- 23
2019-08-12 13:00:00 27.1 4 Oeste 13 Norte 0 -- -- 25
2019-08-12 12:00:00 25.5 6 Sudoeste 13 Sudoeste 0 -- -- 30
2019-08-12 11:00:00 23.8 6 Oeste 10 Oeste 0 -- -- 35
2019-08-12 10:00:00 22.9 2 Oeste 9 Oeste 0 -- -- 38
2019-08-12 09:00:00 18.6 2 Oeste 8 Este 0 -- -- 52
2019-08-12 08:00:00 14.9 3 Noroeste 8 Norte 0 -- -- 58
2019-08-12 07:00:00 13.6 0 Calma 4 Oeste 0 -- -- 61
2019-08-12 06:00:00 14.9 2 Nordeste 7 Nordeste 0 -- -- 58
2019-08-12 05:00:00 14.8 5 Nordeste 8 Este 0 -- -- 58
2019-08-12 04:00:00 16.6 4 Nordeste 11 Sudeste 0 -- -- 52
2019-08-12 03:00:00 16.4 4 Sudoeste 10 Nordeste 0 -- -- 51
2019-08-12 02:00:00 18.8 4 Noroeste 15 Noroeste 0 -- -- 42
2019-08-12 01:00:00 21.8 9 Oeste 22 Oeste 0 -- -- 34
2019-08-12 00:00:00 20.8 5 Norte 18 Noroeste 0 -- -- 36
2019-08-11 23:00:00 21.9 7 Sur 13 Noroeste 0 -- -- 34
2019-08-11 22:00:00 24.7 8 Noroeste 25 Noroeste 0 -- -- 28
2019-08-11 21:00:00 26.4 13 Noroeste 32 Oeste 0 -- -- 27
2019-08-11 20:00:00 26.9 14 Sudoeste 30 Oeste 0 -- -- 27
2019-08-11 19:00:00 29.5 16 Sudoeste 30 Sudoeste 0 -- -- 26
2019-08-11 18:00:00 30.1 16 Sudoeste 35 Sudoeste 0 -- -- 27
2019-08-11 17:00:00 29.5 22 Sudoeste 32 Sur 0 -- -- 30
2019-08-11 16:00:00 29.8 15 Sudoeste 31 Sudoeste 0 -- -- 29
2019-08-11 15:00:00 28.9 13 Sudoeste 26 Sur 0 -- -- 34
2019-08-11 14:00:00 27.8 16 Sudoeste 28 Sur 0 -- -- 39
2019-08-11 13:00:00 25 13 Sudoeste 21 Sudoeste 0 -- -- 46
2019-08-11 12:00:00 24.7 5 Sur 13 Oeste 0 -- -- 46
2019-08-11 11:00:00 23.8 5 Sur 15 Sur 0 -- -- 50
2019-08-11 10:00:00 21.6 9 Sudoeste 23 Sudoeste 0 -- -- 55
2019-08-11 09:00:00 20.1 9 Sudoeste 16 Sudoeste 0 -- -- 60
2019-08-11 08:00:00 19 3 Sudoeste 10 Norte 0 -- -- 61
2019-08-11 07:00:00 17.6 7 Noroeste 15 Sudoeste 0 -- -- 66
2019-08-11 06:00:00 19.3 3 Este 14 Nordeste 0 -- -- 59
2019-08-11 05:00:00 20.5 0 Calma 9 Nordeste 0 -- -- 60
2019-08-11 04:00:00 21.8 4 Noroeste 8 Oeste 0 -- -- 52
2019-08-11 03:00:00 20.6 4 Oeste 8 Sudoeste 0 -- -- 56
2019-08-11 02:00:00 21.9 4 Nordeste 8 Nordeste 0 -- -- 47
2019-08-11 01:00:00 22.1 5 Nordeste 9 Nordeste 0 -- -- 49
2019-08-11 00:00:00 22.7 3 Nordeste 8 Nordeste 0 -- -- 48
2019-08-10 23:00:00 23.7 3 Norte 9 Norte 0 -- -- 45
2019-08-10 22:00:00 25.2 5 Norte 9 Sudoeste 0 -- -- 41
2019-08-10 21:00:00 27.3 5 Sudoeste 10 Oeste 0 -- -- 33
2019-08-10 20:00:00 28.9 8 Sudoeste 13 Oeste 0 -- -- 29
2019-08-10 19:00:00 29.3 10 Oeste 19 Sudoeste 0 -- -- 25
2019-08-10 18:00:00 30.1 10 Sudoeste 19 Sudoeste 0 -- -- 27
2019-08-10 17:00:00 32 9 Sudoeste 23 Sudoeste 0 -- -- 27
2019-08-10 16:00:00 31.3 11 Sur 22 Sur 0 -- -- 34
2019-08-10 15:00:00 30.4 6 Sur 17 Sudoeste 0 -- -- 31
2019-08-10 14:00:00 28.7 9 Sur 19 Sudeste 0 -- -- 37
2019-08-10 13:00:00 28.5 7 Sur 15 Sur 0 -- -- 42
2019-08-10 12:00:00 26.6 6 Sudoeste 13 Este 0 -- -- 51
2019-08-10 11:00:00 24.3 4 Este 14 Sudeste 0 -- -- 62
2019-08-10 10:00:00 20.9 5 Este 14 Este 0 -- -- 73
2019-08-10 09:00:00 19 0 Calma 4 Este 0 -- -- 86
2019-08-10 08:00:00 14.4 3 Este 5 Norte 0 -- -- 95
2019-08-10 07:00:00 13.6 3 Este 5 Este 0 -- -- 96
2019-08-10 06:00:00 13.7 3 Este 4 Nordeste 0 -- -- 94
2019-08-10 05:00:00 14.9 0 Calma 5 Nordeste 0 -- -- 93
2019-08-10 04:00:00 14.9 2 Norte 5 Norte 0 -- -- 96
2019-08-10 03:00:00 14.8 0 Calma 6 Norte 0 -- -- 94
2019-08-10 02:00:00 15.8 2 Nordeste 5 Nordeste 0 -- -- 94
2019-08-10 01:00:00 15.7 4 Este 6 Oeste 0 -- -- 92
2019-08-10 00:00:00 17.1 2 Sudoeste 6 Sur 0 -- -- 85
2019-08-09 23:00:00 18.1 4 Norte 10 Sudoeste 0 -- -- 81
2019-08-09 22:00:00 19.5 8 Sudoeste 17 Sudoeste 0 -- -- 77
2019-08-09 21:00:00 23.2 12 Sudoeste 24 Sudoeste 0 -- -- 67
2019-08-09 20:00:00 24.8 16 Sudoeste 30 Sudoeste 0 -- -- 65
2019-08-09 19:00:00 26.4 14 Oeste 30 Oeste 0 -- -- 60
2019-08-09 18:00:00 26 17 Sudoeste 26 Sudoeste 0 -- -- 65
2019-08-09 17:00:00 26.4 22 Oeste 40 Oeste 0 -- -- 67
2019-08-09 16:00:00 27.6 10 Oeste 22 Oeste 0 -- -- 67
2019-08-09 15:00:00 28 7 Noroeste 19 Sudoeste 0 -- -- 63
2019-08-09 14:00:00 25.6 6 Oeste 15 Noroeste 0 -- -- 72
2019-08-09 13:00:00 22.6 9 Oeste 18 Noroeste 0 -- -- 87
2019-08-09 12:00:00 22.5 13 Noroeste 19 Oeste 0 -- -- 81
2019-08-09 11:00:00 22.6 13 Oeste 22 Oeste 0 -- -- 80
2019-08-09 10:00:00 22.3 13 Oeste 23 Oeste 0 -- -- 81
2019-08-09 09:00:00 22.1 8 Oeste 11 Sudoeste 0 -- -- 79
2019-08-09 08:00:00 21.3 6 Oeste 14 Sudoeste 0 -- -- 81
2019-08-09 07:00:00 20 6 Oeste 17 Sudoeste 0 -- -- 85
2019-08-09 06:00:00 20.5 8 Oeste 14 Oeste 0 -- -- 81
2019-08-09 05:00:00 21.6 9 Oeste 17 Oeste 0 -- -- 75
2019-08-09 04:00:00 22.2 12 Oeste 18 Oeste 0 -- -- 70
2019-08-09 03:00:00 22.3 8 Oeste 12 Oeste 0 -- -- 68
2019-08-09 02:00:00 23.7 7 Oeste 13 Oeste 0 -- -- 64
2019-08-09 01:00:00 23.3 3 Oeste 10 Oeste 0 -- -- 64
2019-08-09 00:00:00 24.3 5 Sudoeste 11 Sur 0 -- -- 58
2019-08-08 23:00:00 25.5 10 Oeste 12 Oeste 0 -- -- 53
2019-08-08 22:00:00 28.9 8 Noroeste 14 Oeste 0 -- -- 43
2019-08-08 21:00:00 30.1 13 Oeste 30 Oeste 0 -- -- 41
2019-08-08 20:00:00 33.7 18 Sudoeste 32 Sudoeste 0 -- -- 33
2019-08-08 19:00:00 34.4 23 Sudoeste 33 Sudoeste 0 -- -- 31
2019-08-08 18:00:00 35.1 11 Sudoeste 28 Sudoeste 0 -- -- 30
2019-08-08 17:00:00 34.3 15 Sudoeste 34 Sudoeste 0 -- -- 31
2019-08-08 16:00:00 33.2 18 Sudoeste 31 Sudoeste 0 -- -- 33
2019-08-08 15:00:00 33 16 Sudoeste 28 Sur 0 -- -- 35
2019-08-08 14:00:00 31.8 9 Oeste 23 Sudoeste 0 -- -- 38
2019-08-08 13:00:00 30.6 11 Sudoeste 19 Sur 0 -- -- 40
2019-08-08 12:00:00 28.5 9 Sudoeste 19 Sur 0 -- -- 48
2019-08-08 11:00:00 28 5 Sur 13 Sur 0 -- -- 47
2019-08-08 10:00:00 25.1 7 Sudeste 11 Este 0 -- -- 56
2019-08-08 09:00:00 23.7 0 Calma 7 Oeste 0 -- -- 61
2019-08-08 08:00:00 18 2 Nordeste 5 Este 0 -- -- 85
2019-08-08 07:00:00 17.6 0 Calma 6 Este 0 -- -- 82
2019-08-08 06:00:00 17.8 0 Calma 5 Noroeste 0 -- -- 81
2019-08-08 05:00:00 17.1 3 Nordeste 7 Este 0 -- -- 85
2019-08-08 04:00:00 18 4 Nordeste 6 Norte 0 -- -- 79
2019-08-08 03:00:00 19.2 0 Calma 5 Norte 0 -- -- 76
2019-08-08 02:00:00 18.8 2 Este 6 Este 0 -- -- 76
2019-08-08 01:00:00 19.2 3 Este 8 Sudoeste 0 -- -- 71
2019-08-08 00:00:00 20.6 4 Nordeste 9 Norte 0 -- -- 66
2019-08-07 23:00:00 20.9 4 Noroeste 11 Norte 0 -- -- 66
2019-08-07 22:00:00 22.2 6 Norte 10 Norte 0 -- -- 60
2019-08-07 21:00:00 25.4 8 Oeste 26 Sudoeste 0 -- -- 50
2019-08-07 20:00:00 26.6 12 Sudoeste 24 Sudoeste 0 -- -- 48
2019-08-07 19:00:00 26.3 10 Sudoeste 20 Sudoeste 0 -- -- 46
2019-08-07 18:00:00 25.8 9 Oeste 15 Oeste 0 -- -- 50
2019-08-07 17:00:00 27 3 Sur 13 Oeste 0 -- -- 51
2019-08-07 16:00:00 26.1 8 Sudoeste 14 Oeste 0 -- -- 62
2019-08-07 15:00:00 23 8 Oeste 18 Sur 0.2 -- -- 76
2019-08-07 14:00:00 22 7 Oeste 16 Sudoeste 0.2 -- -- 79
2019-08-07 13:00:00 22.7 8 Sur 19 Sudoeste 0 -- -- 72
2019-08-07 12:00:00 23.6 10 Sudoeste 17 Sudoeste 0 -- -- 63
2019-08-07 11:00:00 22.9 9 Sudoeste 15 Sudoeste 0 -- -- 64
2019-08-07 10:00:00 22.8 7 Sudoeste 13 Sudoeste 0 -- -- 64
2019-08-07 09:00:00 21.8 3 Sudoeste 6 Oeste 0 -- -- 68
2019-08-07 08:00:00 21.3 0 Calma 12 Sudoeste 0 -- -- 68
2019-08-07 07:00:00 21.4 3 Oeste 10 Sudoeste 0 -- -- 67
2019-08-07 06:00:00 22.1 6 Sudoeste 12 Sudoeste 0 -- -- 63
2019-08-07 05:00:00 22.2 4 Noroeste 7 Noroeste 0 -- -- 61
2019-08-07 04:00:00 22.8 2 Oeste 9 Oeste 0 -- -- 60
2019-08-07 03:00:00 22.6 3 Norte 5 Norte 0 -- -- 58
2019-08-07 02:00:00 23.4 0 Calma 12 Sudoeste 0 -- -- 53
2019-08-07 01:00:00 24.1 2 Noroeste 10 Sudeste 0 -- -- 51
2019-08-07 00:00:00 26.6 2 Norte 11 Sudoeste 0 -- -- 41
2019-08-06 23:00:00 26 3 Norte 14 Sur 0 -- -- 41
2019-08-06 22:00:00 27.6 6 Norte 9 Norte 0 -- -- 36
2019-08-06 21:00:00 30.9 5 Oeste 16 Sudoeste 0 -- -- 31
2019-08-06 20:00:00 33.2 10 Sudoeste 23 Sudoeste 0 -- -- 24
2019-08-06 19:00:00 35.2 19 Oeste 32 Oeste 0 -- -- 23
2019-08-06 18:00:00 35.2 15 Oeste 31 Sur 0 -- -- 22
2019-08-06 17:00:00 36.2 13 Sudoeste 27 Sur 0 -- -- 22
2019-08-06 16:00:00 35 12 Sudoeste 26 Sudoeste 0 -- -- 22
2019-08-06 15:00:00 34.2 14 Oeste 27 Sudoeste 0 -- -- 26
2019-08-06 14:00:00 33.5 12 Sudoeste 23 Sudoeste 0 -- -- 29
2019-08-06 13:00:00 31.8 6 Oeste 18 Sudoeste 0 -- -- 34
2019-08-06 12:00:00 30.5 7 Oeste 15 Oeste 0 -- -- 36
2019-08-06 11:00:00 28.9 5 Sudoeste 10 Sudoeste 0 -- -- 36
2019-08-06 10:00:00 26 7 Sudoeste 10 Sudoeste 0 -- -- 40
2019-08-06 09:00:00 22.6 2 Nordeste 5 Nordeste 0 -- -- 50
2019-08-06 08:00:00 17.4 3 Nordeste 9 Oeste 0 -- -- 52
2019-08-06 07:00:00 16.7 0 Calma 5 Este 0 -- -- 56
2019-08-06 06:00:00 18.5 2 Noroeste 4 Nordeste 0 -- -- 44
2019-08-06 05:00:00 17.1 3 Nordeste 6 Nordeste 0 -- -- 49
2019-08-06 04:00:00 19.8 3 Norte 5 Norte 0 -- -- 38
2019-08-06 03:00:00 19 2 Norte 10 Este 0 -- -- 40
2019-08-06 02:00:00 19.6 6 Norte 9 Norte 0 -- -- 45
2019-08-06 01:00:00 22.4 2 Oeste 8 Este 0 -- -- 31
2019-08-06 00:00:00 23.5 4 Este 13 Oeste 0 -- -- 32
2019-08-05 23:00:00 25.6 4 Noroeste 11 Noroeste 0 -- -- 25
2019-08-05 22:00:00 27.4 7 Norte 9 Norte 0 -- -- 24
2019-08-05 21:00:00 32.6 7 Oeste 18 Oeste 0 -- -- 20
2019-08-05 20:00:00 36 11 Oeste 21 Oeste 0 -- -- 17
2019-08-05 19:00:00 36.8 14 Oeste 30 Oeste 0 -- -- 16
2019-08-05 18:00:00 37.2 14 Sudoeste 24 Sur 0 -- -- 15
2019-08-05 17:00:00 37.3 10 Sudoeste 27 Sur 0 -- -- 15
2019-08-05 16:00:00 36.2 14 Sudoeste 31 Sudoeste 0 -- -- 16
2019-08-05 15:00:00 35.4 15 Oeste 24 Oeste 0 -- -- 18
2019-08-05 14:00:00 34.1 7 Oeste 17 Oeste 0 -- -- 21
2019-08-05 13:00:00 32.5 7 Sur 17 Sudoeste 0 -- -- 29
2019-08-05 12:00:00 29.7 9 Sudoeste 18 Sudoeste 0 -- -- 38
2019-08-05 11:00:00 29.4 3 Sudeste 10 Sudeste 0 -- -- 39
2019-08-05 10:00:00 26.4 5 Sudeste 9 Sudeste 0 -- -- 48
2019-08-05 09:00:00 22.4 3 Este 6 Nordeste 0 -- -- 56
2019-08-05 08:00:00 18.3 4 Nordeste 8 Nordeste 0 -- -- 68
2019-08-05 07:00:00 18 5 Nordeste 8 Este 0 -- -- 64
2019-08-05 06:00:00 17.7 2 Nordeste 5 Nordeste 0 -- -- 63
2019-08-05 05:00:00 18.5 2 Nordeste 5 Nordeste 0 -- -- 61
2019-08-05 04:00:00 19.5 2 Este 6 Este 0 -- -- 57
2019-08-05 03:00:00 20.5 4 Nordeste 9 Nordeste 0 -- -- 54
2019-08-05 02:00:00 20.9 5 Nordeste 8 Este 0 -- -- 55
2019-08-05 01:00:00 22.9 2 Noroeste 7 Norte 0 -- -- 48
2019-08-05 00:00:00 24.8 6 Norte 14 Sur 0 -- -- 44
2019-08-04 23:00:00 26.2 5 Noroeste 9 Noroeste 0 -- -- 40
2019-08-04 22:00:00 29 5 Noroeste 10 Sudoeste 0 -- -- 35
2019-08-04 21:00:00 32.6 8 Oeste 19 Sudoeste 0 -- -- 30
2019-08-04 20:00:00 35.6 12 Sudoeste 30 Sudoeste 0 -- -- 24
2019-08-04 19:00:00 36.3 16 Sudoeste 31 Sudoeste 0 -- -- 23
2019-08-04 18:00:00 36.7 17 Sudoeste 30 Sudoeste 0 -- -- 21
2019-08-04 17:00:00 36.6 14 Sudoeste 24 Sudoeste 0 -- -- 21
2019-08-04 16:00:00 35.7 12 Sudoeste 23 Sudoeste 0 -- -- 27
2019-08-04 15:00:00 34.4 11 Sudoeste 25 Sur 0 -- -- 30
2019-08-04 14:00:00 32.5 15 Sudoeste 23 Sur 0 -- -- 32
2019-08-04 13:00:00 31.7 10 Sudoeste 21 Sur 0 -- -- 34
2019-08-04 12:00:00 30.7 11 Sudoeste 18 Sudoeste 0 -- -- 37
2019-08-04 11:00:00 28.8 7 Sudoeste 13 Sudoeste 0 -- -- 42
2019-08-04 10:00:00 27.4 5 Sudoeste 10 Oeste 0 -- -- 43
2019-08-04 09:00:00 26.2 3 Sudoeste 7 Sudoeste 0 -- -- 47
2019-08-04 08:00:00 18.7 4 Nordeste 5 Este 0 -- -- 65
2019-08-04 07:00:00 17 3 Este 8 Este 0 -- -- 68
2019-08-04 06:00:00 20 0 Calma 6 Oeste 0 -- -- 56
2019-08-04 05:00:00 18.2 2 Nordeste 4 Norte 0 -- -- 58
2019-08-04 04:00:00 19.6 0 Calma 7 Nordeste 0 -- -- 50
2019-08-04 03:00:00 19.8 5 Nordeste 11 Este 0 -- -- 54
2019-08-04 02:00:00 21.3 5 Norte 12 Sur 0 -- -- 49
2019-08-04 01:00:00 22.7 4 Nordeste 12 Sudeste 0 -- -- 45
2019-08-04 00:00:00 24.7 4 Noroeste 10 Norte 0 -- -- 37
2019-08-03 23:00:00 26 3 Noroeste 9 Norte 0 -- -- 35
2019-08-03 22:00:00 28.5 6 Noroeste 8 Noroeste 0 -- -- 31
2019-08-03 21:00:00 33.3 5 Oeste 17 Sudoeste 0 -- -- 25
2019-08-03 20:00:00 36.2 13 Sudoeste 26 Sudoeste 0 -- -- 19
2019-08-03 19:00:00 37.1 12 Sudoeste 22 Sudoeste 0 -- -- 16
2019-08-03 18:00:00 37.3 13 Sudoeste 25 Sudoeste 0 -- -- 14
2019-08-03 17:00:00 36.9 16 Sudoeste 28 Sudoeste 0 -- -- 16
2019-08-03 16:00:00 36.8 15 Sur 27 Sur 0 -- -- 15
2019-08-03 15:00:00 36.3 9 Sudoeste 22 Sur 0 -- -- 18
2019-08-03 14:00:00 34.7 12 Sudoeste 20 Sudoeste 0 -- -- 22
2019-08-03 13:00:00 33.8 9 Sudoeste 19 Sudoeste 0 -- -- 23
2019-08-03 12:00:00 32.6 6 Sudoeste 14 Sudoeste 0 -- -- 27
2019-08-03 11:00:00 30.8 5 Sudoeste 11 Sur 0 -- -- 29
2019-08-03 10:00:00 29 3 Sudoeste 6 Sudoeste 0 -- -- 31
2019-08-03 09:00:00 24.9 0 Calma 9 Nordeste 0 -- -- 39
2019-08-03 08:00:00 17.4 3 Este 7 Este 0 -- -- 53
2019-08-03 07:00:00 16.2 3 Este 8 Este 0 -- -- 58
2019-08-03 06:00:00 19.5 5 Noroeste 6 Noroeste 0 -- -- 43
2019-08-03 05:00:00 17.7 4 Nordeste 6 Oeste 0 -- -- 56
2019-08-03 04:00:00 20.4 2 Nordeste 10 Norte 0 -- -- 41
2019-08-03 03:00:00 19 4 Sudeste 7 Nordeste 0 -- -- 51
2019-08-03 02:00:00 21.5 6 Nordeste 9 Nordeste 0 -- -- 39
2019-08-03 01:00:00 22.9 3 Este 6 Sudeste 0 -- -- 34
2019-08-03 00:00:00 24 3 Sudeste 9 Oeste 0 -- -- 31
2019-08-02 23:00:00 27.2 5 Norte 11 Norte 0 -- -- 25
2019-08-02 22:00:00 26.3 4 Noroeste 12 Noroeste 0 -- -- 27
2019-08-02 21:00:00 34.2 6 Noroeste 11 Sudoeste 0 -- -- 19
2019-08-02 20:00:00 36.2 9 Sudoeste 18 Oeste 0 -- -- 16
2019-08-02 19:00:00 37 11 Sudoeste 19 Sudoeste 0 -- -- 16
2019-08-02 18:00:00 36.9 11 Sudoeste 22 Sudoeste 0 -- -- 16
2019-08-02 17:00:00 36.9 8 Sur 23 Sur 0 -- -- 18
2019-08-02 16:00:00 35.8 11 Sudoeste 22 Sur 0 -- -- 19
2019-08-02 15:00:00 35.1 11 Oeste 21 Sudoeste 0 -- -- 18
2019-08-02 14:00:00 33.6 9 Sudoeste 18 Sur 0 -- -- 25
2019-08-02 13:00:00 32.7 6 Oeste 14 Sudoeste 0 -- -- 26
2019-08-02 12:00:00 30.5 6 Este 13 Este 0 -- -- 31
2019-08-02 11:00:00 29 4 Este 13 Este 0 -- -- 31
2019-08-02 10:00:00 26.2 3 Nordeste 9 Este 0 -- -- 38
2019-08-02 09:00:00 22.9 2 Sudeste 5 Este 0 -- -- 45
2019-08-02 08:00:00 18 0 Calma 5 Nordeste 0 -- -- 59
2019-08-02 07:00:00 15.9 0 Calma 5 Este 0 -- -- 62
2019-08-02 06:00:00 16.9 0 Calma 5 Norte 0 -- -- 59
2019-08-02 05:00:00 18.6 0 Calma 5 Este 0 -- -- 51
2019-08-02 04:00:00 19.1 2 Nordeste 6 Nordeste 0 -- -- 51
2019-08-02 03:00:00 20.9 3 Norte 9 Este 0 -- -- 44
2019-08-02 02:00:00 21.3 6 Este 12 Nordeste 0 -- -- 44
2019-08-02 01:00:00 22.7 0 Calma 14 Sur 0 -- -- 38
2019-08-02 00:00:00 23.3 3 Nordeste 10 Este 0 -- -- 35
2019-08-01 23:00:00 22.9 4 Noroeste 10 Oeste 0 -- -- 36
2019-08-01 22:00:00 25.8 0 Calma 9 Noroeste 0 -- -- 31
2019-08-01 21:00:00 32.2 6 Oeste 25 Sudoeste 0 -- -- 23
2019-08-01 20:00:00 34.6 13 Sudoeste 32 Sur 0 -- -- 19
2019-08-01 19:00:00 35.5 14 Sudoeste 31 Sudoeste 0 -- -- 23
2019-08-01 18:00:00 35.3 17 Sudoeste 28 Sudoeste 0 -- -- 23
2019-08-01 17:00:00 34.7 15 Sudoeste 29 Sur 0 -- -- 24
2019-08-01 16:00:00 34.6 15 Sudoeste 25 Sudoeste 0 -- -- 25
2019-08-01 15:00:00 33.9 14 Sudoeste 30 Oeste 0 -- -- 24
2019-08-01 14:00:00 32.8 11 Oeste 30 Sudoeste 0 -- -- 33
2019-08-01 13:00:00 32 12 Sudoeste 23 Sudoeste 0 -- -- 33
2019-08-01 12:00:00 30.9 8 Sur 15 Sur 0 -- -- 42
2019-08-01 11:00:00 30.1 3 Norte 11 Sudeste 0 -- -- 46
2019-08-01 10:00:00 27.9 6 Este 13 Sur 0 -- -- 50
2019-08-01 09:00:00 27.1 2 Este 6 Noroeste 0 -- -- 53
2019-08-01 08:00:00 21.6 2 Noroeste 4 Sur 0 -- -- 66
2019-08-01 07:00:00 21.3 2 Norte 10 Norte 0 -- -- 68
2019-08-01 06:00:00 21.9 6 Norte 11 Norte 0 -- -- 63
2019-08-01 05:00:00 21.7 3 Nordeste 7 Nordeste 0 -- -- 47
2019-08-01 04:00:00 23.1 5 Nordeste 10 Este 0 -- -- 45
2019-08-01 03:00:00 24 2 Noroeste 9 Nordeste 0 -- -- 39
2019-08-01 02:00:00 22.7 5 Nordeste 8 Este 0 -- -- 49
2019-08-01 01:00:00 24 0 Calma 5 Este 0 -- -- 38
2019-08-01 00:00:00 24.2 0 Calma 6 Norte 0 -- -- 36
2019-07-31 23:00:00 25.1 0 Calma 9 Norte 0 -- -- 36
2019-07-31 22:00:00 26.8 4 Noroeste 9 Norte 0 -- -- 32
2019-07-31 21:00:00 30.3 4 Noroeste 9 Oeste 0 -- -- 31
2019-07-31 20:00:00 34.1 6 Oeste 16 Oeste 0 -- -- 26
2019-07-31 19:00:00 35.8 8 Oeste 21 Noroeste 0 -- -- 21
2019-07-31 18:00:00 35.9 12 Sudoeste 25 Sudoeste 0 -- -- 22
2019-07-31 17:00:00 35.9 10 Oeste 20 Sudoeste 0 -- -- 23
2019-07-31 16:00:00 35.5 6 Este 17 Noroeste 0 -- -- 24
2019-07-31 15:00:00 33.9 7 Noroeste 17 Este 0 -- -- 28
2019-07-31 14:00:00 32.7 10 Sudeste 25 Nordeste 0 -- -- 29
2019-07-31 13:00:00 30.6 13 Este 28 Este 0 -- -- 40
2019-07-31 12:00:00 28.9 13 Nordeste 28 Este 0 -- -- 45
2019-07-31 11:00:00 27.4 21 Este 36 Este 0 -- -- 48
2019-07-31 10:00:00 26.5 22 Este 36 Este 0 -- -- 46
2019-07-31 09:00:00 24.9 3 Norte 11 Este 0 -- -- 44
2019-07-31 08:00:00 20.4 4 Nordeste 10 Norte 0 -- -- 40
2019-07-31 07:00:00 16.6 2 Norte 9 Este 0 -- -- 50
2019-07-31 06:00:00 16.9 3 Norte 6 Nordeste 0 -- -- 45
2019-07-31 05:00:00 18.1 4 Norte 10 Este 0 -- -- 41
2019-07-31 04:00:00 19.6 9 Noroeste 11 Noroeste 0 -- -- 37
2019-07-31 03:00:00 18.2 3 Nordeste 10 Sur 0 -- -- 44
2019-07-31 02:00:00 20 5 Noroeste 10 Este 0 -- -- 41
2019-07-31 01:00:00 21 0 Calma 7 Noroeste 0 -- -- 34
2019-07-31 00:00:00 22.4 4 Noroeste 8 Noroeste 0 -- -- 35
2019-07-30 23:00:00 23.3 3 Este 11 Sudeste 0 -- -- 36
2019-07-30 22:00:00 25.1 2 Norte 13 Norte 0 -- -- 35
2019-07-30 21:00:00 30.7 6 Noroeste 13 Oeste 0 -- -- 27
2019-07-30 20:00:00 32.9 7 Oeste 13 Oeste 0 -- -- 22
2019-07-30 19:00:00 34.1 5 Sur 19 Sur 0 -- -- 20
2019-07-30 18:00:00 34.2 4 Sudeste 20 Sudeste 0 -- -- 20
2019-07-30 17:00:00 33.1 6 Sudeste 17 Sudoeste 0 -- -- 20
2019-07-30 16:00:00 32.5 6 Oeste 18 Sudeste 0 -- -- 21
2019-07-30 15:00:00 31.3 11 Sur 21 Sur 0 -- -- 23
2019-07-30 14:00:00 30.3 7 Sur 19 Sur 0 -- -- 25
2019-07-30 13:00:00 28.8 10 Sur 18 Sur 0 -- -- 26
2019-07-30 12:00:00 28.2 4 Nordeste 15 Sudeste 0 -- -- 28
2019-07-30 11:00:00 26.2 3 Norte 8 Noroeste 0 -- -- 31
2019-07-30 10:00:00 24.2 3 Oeste 8 Noroeste 0 -- -- 35
2019-07-30 09:00:00 21.5 3 Oeste 6 Noroeste 0 -- -- 42
2019-07-30 08:00:00 15.7 3 Norte 6 Sudeste 0 -- -- 59
2019-07-30 07:00:00 13.8 2 Noroeste 8 Oeste 0 -- -- 62
2019-07-30 06:00:00 13.5 2 Nordeste 8 Norte 0 -- -- 64
2019-07-30 05:00:00 15.5 3 Norte 7 Norte 0 -- -- 56
2019-07-30 04:00:00 17.2 4 Norte 6 Norte 0 -- -- 49
2019-07-30 03:00:00 17.8 3 Norte 7 Norte 0 -- -- 49
2019-07-30 02:00:00 18.6 3 Nordeste 9 Nordeste 0 -- -- 49
2019-07-30 01:00:00 19.3 0 Calma 8 Este 0 -- -- 45
2019-07-30 00:00:00 20.9 3 Nordeste 12 Este 0 -- -- 44
2019-07-29 23:00:00 22.5 4 Sudoeste 28 Sudoeste 0 -- -- 38
2019-07-29 22:00:00 26.7 21 Sudoeste 31 Sudoeste 0 -- -- 28
2019-07-29 21:00:00 29.1 17 Sudoeste 31 Sudoeste 0 -- -- 26
2019-07-29 20:00:00 31.4 17 Sudoeste 37 Sudoeste 0 -- -- 23
2019-07-29 19:00:00 32.6 18 Sudoeste 54 Sudoeste 0 -- -- 27
2019-07-29 18:00:00 32.3 21 Sudoeste 40 Sudoeste 0 -- -- 25
2019-07-29 17:00:00 32.4 22 Sudoeste 34 Sudoeste 0 -- -- 29
2019-07-29 16:00:00 32.3 18 Sudoeste 32 Sudoeste 0 -- -- 28
2019-07-29 15:00:00 31.7 15 Sudoeste 31 Sudoeste 0 -- -- 29
2019-07-29 14:00:00 30.2 13 Sudoeste 27 Oeste 0 -- -- 31
2019-07-29 13:00:00 28.4 9 Sudoeste 24 Sudoeste 0 -- -- 37
2019-07-29 12:00:00 26.6 8 Sur 15 Sudoeste 0 -- -- 41
2019-07-29 11:00:00 26.4 6 Sur 11 Sur 0 -- -- 42
2019-07-29 10:00:00 24.2 4 Sudoeste 9 Sudoeste 0 -- -- 49
2019-07-29 09:00:00 21.6 4 Este 9 Este 0 -- -- 56
2019-07-29 08:00:00 16.7 4 Oeste 6 Nordeste 0 -- -- 73
2019-07-29 07:00:00 16.4 3 Norte 6 Norte 0 -- -- 72
2019-07-29 06:00:00 16.1 4 Este 7 Este 0 -- -- 72
2019-07-29 05:00:00 16.8 4 Este 6 Nordeste 0 -- -- 69
2019-07-29 04:00:00 18 4 Nordeste 7 Nordeste 0 -- -- 63
2019-07-29 03:00:00 19.8 3 Oeste 11 Norte 0 -- -- 60
2019-07-29 02:00:00 21.6 5 Norte 13 Norte 0 -- -- 52
2019-07-29 01:00:00 21.5 3 Este 4 Este 0 -- -- 51
2019-07-29 00:00:00 22 2 Sudeste 6 Norte 0 -- -- 51
2019-07-28 23:00:00 23.5 2 Norte 8 Oeste 0 -- -- 45
2019-07-28 22:00:00 25.7 5 Noroeste 12 Sudoeste 0 -- -- 39
2019-07-28 21:00:00 30.6 7 Sudoeste 21 Sudoeste 0 -- -- 28
2019-07-28 20:00:00 32.2 12 Sudoeste 24 Sur 0 -- -- 25
2019-07-28 19:00:00 32.6 15 Sudoeste 26 Sudoeste 0 -- -- 27
2019-07-28 18:00:00 32.4 16 Sudoeste 26 Sudoeste 0 -- -- 29
2019-07-28 17:00:00 32.1 14 Sur 25 Sur 0 -- -- 31
2019-07-28 16:00:00 31.8 12 Sur 28 Sur 0 -- -- 32
2019-07-28 15:00:00 30.6 9 Sudoeste 21 Sur 0 -- -- 35
2019-07-28 14:00:00 29.9 8 Sudoeste 19 Sur 0 -- -- 35
2019-07-28 13:00:00 29.4 8 Sudeste 15 Sur 0 -- -- 37
2019-07-28 12:00:00 27.7 3 Noroeste 10 Nordeste 0 -- -- 42
2019-07-28 11:00:00 25.9 5 Nordeste 15 Este 0 -- -- 44
2019-07-28 10:00:00 24.3 6 Este 12 Este 0 -- -- 49
2019-07-28 09:00:00 21.2 5 Nordeste 8 Nordeste 0 -- -- 63
2019-07-28 08:00:00 18.6 3 Noroeste 7 Noroeste 0 -- -- 70
2019-07-28 07:00:00 16.2 2 Noroeste 8 Norte 0 -- -- 74
2019-07-28 06:00:00 16.7 3 Este 8 Sudeste 0 -- -- 74
2019-07-28 05:00:00 17.5 0 Calma 5 Norte 0 -- -- 72
2019-07-28 04:00:00 17.6 3 Nordeste 10 Este 0 -- -- 73
2019-07-28 03:00:00 19.3 6 Nordeste 9 Nordeste 0 -- -- 67
2019-07-28 02:00:00 20.6 5 Nordeste 10 Nordeste 0 -- -- 62
2019-07-28 01:00:00 20.8 4 Noroeste 12 Este 0 -- -- 62
2019-07-28 00:00:00 22.5 6 Sudeste 10 Sudeste 0 -- -- 58
2019-07-27 23:00:00 22.4 2 Nordeste 13 Oeste 0 -- -- 60
2019-07-26 12:00:00 -- -- -- -- -- -- -- -- --
2019-07-26 11:00:00 24.5 12 Sudoeste 18 Sudoeste 0 -- -- 58
2019-07-26 10:00:00 23.4 8 Sudoeste 16 Sudoeste 0 -- -- 63
2019-07-26 09:00:00 22.1 8 Sudoeste 16 Sur 0 -- -- 69
2019-07-26 08:00:00 20.6 4 Sudoeste 9 Sudoeste 0 -- -- 76
2019-07-26 07:00:00 20.3 5 Oeste 9 Noroeste 0 -- -- 77
2019-07-26 06:00:00 20.4 0 Calma 12 Sudoeste 0 -- -- 77
2019-07-26 05:00:00 21.8 5 Sudoeste 12 Sudoeste 0 -- -- 70
2019-07-26 04:00:00 23.3 8 Sur 14 Sur 0 -- -- 64
2019-07-26 03:00:00 23.5 0 Calma 9 Sudoeste 0 -- -- 65
2019-07-26 02:00:00 24.4 3 Sudoeste 9 Sudoeste 0 -- -- 61
2019-07-26 01:00:00 25.3 3 Oeste 12 Oeste 0 -- -- 48
2019-07-26 00:00:00 25 5 Noroeste 9 Sudoeste 0 -- -- 47